sensor_id;sensor_type;location;lat;lon;timestamp;P1;durP1;ratioP1;P2;durP2;ratioP2
70800;SDS011;59616;52.170;5.386;2023-07-13T00:00:27;9.57;;;2.10;;
70800;SDS011;59616;52.170;5.386;2023-07-13T00:02:54;11.70;;;2.20;;
70800;SDS011;59616;52.170;5.386;2023-07-13T00:05:22;10.30;;;1.60;;
70800;SDS011;59616;52.170;5.386;2023-07-13T00:07:50;8.23;;;1.50;;
70800;SDS011;59616;52.170;5.386;2023-07-13T00:10:17;10.40;;;1.80;;
70800;SDS011;59616;52.170;5.386;2023-07-13T00:12:44;9.95;;;1.80;;
70800;SDS011;59616;52.170;5.386;2023-07-13T00:15:13;6.75;;;1.52;;
70800;SDS011;59616;52.170;5.386;2023-07-13T00:17:42;10.25;;;1.77;;
70800;SDS011;59616;52.170;5.386;2023-07-13T00:20:13;11.20;;;2.08;;
70800;SDS011;59616;52.170;5.386;2023-07-13T00:22:41;9.18;;;1.73;;
70800;SDS011;59616;52.170;5.386;2023-07-13T00:25:11;9.15;;;1.60;;
70800;SDS011;59616;52.170;5.386;2023-07-13T00:30:08;9.02;;;1.95;;
70800;SDS011;59616;52.170;5.386;2023-07-13T00:32:37;10.32;;;1.83;;
70800;SDS011;59616;52.170;5.386;2023-07-13T00:35:05;6.95;;;1.55;;
70800;SDS011;59616;52.170;5.386;2023-07-13T00:37:32;10.27;;;1.95;;
70800;SDS011;59616;52.170;5.386;2023-07-13T00:40:02;8.23;;;1.63;;
70800;SDS011;59616;52.170;5.386;2023-07-13T00:42:31;12.63;;;1.75;;
70800;SDS011;59616;52.170;5.386;2023-07-13T00:45:02;9.07;;;1.88;;
70800;SDS011;59616;52.170;5.386;2023-07-13T00:47:30;6.95;;;1.50;;
70800;SDS011;59616;52.170;5.386;2023-07-13T00:49:57;10.10;;;1.88;;
70800;SDS011;59616;52.170;5.386;2023-07-13T00:52:25;13.02;;;1.60;;
70800;SDS011;59616;52.170;5.386;2023-07-13T00:54:54;9.68;;;1.65;;
70800;SDS011;59616;52.170;5.386;2023-07-13T00:57:23;6.88;;;1.67;;
70800;SDS011;59616;52.170;5.386;2023-07-13T00:59:52;8.63;;;1.70;;
70800;SDS011;59616;52.170;5.386;2023-07-13T01:02:21;7.43;;;1.80;;
70800;SDS011;59616;52.170;5.386;2023-07-13T01:04:48;12.60;;;1.73;;
70800;SDS011;59616;52.170;5.386;2023-07-13T01:07:16;10.07;;;1.52;;
70800;SDS011;59616;52.170;5.386;2023-07-13T01:09:43;7.65;;;1.67;;
70800;SDS011;59616;52.170;5.386;2023-07-13T01:12:11;9.77;;;1.65;;
70800;SDS011;59616;52.170;5.386;2023-07-13T01:14:40;6.65;;;1.50;;
70800;SDS011;59616;52.170;5.386;2023-07-13T01:17:08;10.02;;;2.15;;
70800;SDS011;59616;52.170;5.386;2023-07-13T01:19:44;7.60;;;1.85;;
70800;SDS011;59616;52.170;5.386;2023-07-13T01:22:13;7.88;;;1.80;;
70800;SDS011;59616;52.170;5.386;2023-07-13T01:24:41;7.20;;;1.60;;
70800;SDS011;59616;52.170;5.386;2023-07-13T01:27:10;10.00;;;1.75;;
70800;SDS011;59616;52.170;5.386;2023-07-13T01:29:39;10.70;;;1.80;;
70800;SDS011;59616;52.170;5.386;2023-07-13T01:32:12;8.85;;;1.75;;
70800;SDS011;59616;52.170;5.386;2023-07-13T01:34:40;9.50;;;1.63;;
70800;SDS011;59616;52.170;5.386;2023-07-13T01:37:09;11.15;;;1.90;;
70800;SDS011;59616;52.170;5.386;2023-07-13T01:39:37;11.00;;;2.20;;
70800;SDS011;59616;52.170;5.386;2023-07-13T01:42:04;11.38;;;2.40;;
70800;SDS011;59616;52.170;5.386;2023-07-13T01:44:31;9.27;;;1.63;;
70800;SDS011;59616;52.170;5.386;2023-07-13T01:46:59;9.43;;;1.75;;
70800;SDS011;59616;52.170;5.386;2023-07-13T01:49:26;8.70;;;1.88;;
70800;SDS011;59616;52.170;5.386;2023-07-13T01:51:53;9.63;;;1.83;;
70800;SDS011;59616;52.170;5.386;2023-07-13T01:54:21;7.20;;;1.75;;
70800;SDS011;59616;52.170;5.386;2023-07-13T01:56:49;8.55;;;1.77;;
70800;SDS011;59616;52.170;5.386;2023-07-13T01:59:17;7.03;;;1.80;;
70800;SDS011;59616;52.170;5.386;2023-07-13T02:01:44;8.43;;;1.58;;
70800;SDS011;59616;52.170;5.386;2023-07-13T02:04:12;10.35;;;2.10;;
70800;SDS011;59616;52.170;5.386;2023-07-13T02:06:39;11.95;;;2.08;;
70800;SDS011;59616;52.170;5.386;2023-07-13T02:09:07;8.05;;;1.90;;
70800;SDS011;59616;52.170;5.386;2023-07-13T02:11:34;5.45;;;1.50;;
70800;SDS011;59616;52.170;5.386;2023-07-13T02:14:01;9.10;;;2.00;;
70800;SDS011;59616;52.170;5.386;2023-07-13T02:16:29;10.60;;;2.30;;
70800;SDS011;59616;52.170;5.386;2023-07-13T02:18:57;10.68;;;1.95;;
70800;SDS011;59616;52.170;5.386;2023-07-13T02:21:26;5.97;;;1.98;;
70800;SDS011;59616;52.170;5.386;2023-07-13T02:23:54;9.00;;;1.80;;
70800;SDS011;59616;52.170;5.386;2023-07-13T02:26:21;8.57;;;1.85;;
70800;SDS011;59616;52.170;5.386;2023-07-13T02:28:48;7.90;;;1.90;;
70800;SDS011;59616;52.170;5.386;2023-07-13T02:31:18;9.40;;;1.92;;
70800;SDS011;59616;52.170;5.386;2023-07-13T02:33:46;6.75;;;1.73;;
70800;SDS011;59616;52.170;5.386;2023-07-13T02:36:13;10.52;;;2.28;;
70800;SDS011;59616;52.170;5.386;2023-07-13T02:38:43;11.20;;;1.90;;
70800;SDS011;59616;52.170;5.386;2023-07-13T02:41:11;13.02;;;1.90;;
70800;SDS011;59616;52.170;5.386;2023-07-13T02:43:39;7.35;;;1.95;;
70800;SDS011;59616;52.170;5.386;2023-07-13T02:46:08;8.27;;;2.10;;
70800;SDS011;59616;52.170;5.386;2023-07-13T02:48:36;8.27;;;1.90;;
70800;SDS011;59616;52.170;5.386;2023-07-13T02:51:04;6.03;;;1.77;;
70800;SDS011;59616;52.170;5.386;2023-07-13T02:53:32;8.52;;;2.13;;
70800;SDS011;59616;52.170;5.386;2023-07-13T02:55:59;9.88;;;2.30;;
70800;SDS011;59616;52.170;5.386;2023-07-13T02:58:27;10.93;;;2.10;;
70800;SDS011;59616;52.170;5.386;2023-07-13T03:00:55;8.27;;;2.05;;
70800;SDS011;59616;52.170;5.386;2023-07-13T03:03:23;11.07;;;2.25;;
70800;SDS011;59616;52.170;5.386;2023-07-13T03:05:57;7.40;;;1.90;;
70800;SDS011;59616;52.170;5.386;2023-07-13T03:08:29;9.50;;;2.20;;
70800;SDS011;59616;52.170;5.386;2023-07-13T03:11:01;9.82;;;2.22;;
70800;SDS011;59616;52.170;5.386;2023-07-13T03:13:31;8.88;;;2.25;;
70800;SDS011;59616;52.170;5.386;2023-07-13T03:15:59;11.60;;;2.63;;
70800;SDS011;59616;52.170;5.386;2023-07-13T03:18:27;9.85;;;2.30;;
70800;SDS011;59616;52.170;5.386;2023-07-13T03:20:59;12.18;;;2.53;;
70800;SDS011;59616;52.170;5.386;2023-07-13T03:23:26;8.52;;;2.38;;
70800;SDS011;59616;52.170;5.386;2023-07-13T03:26:04;10.50;;;2.10;;
70800;SDS011;59616;52.170;5.386;2023-07-13T03:28:32;10.85;;;2.40;;
70800;SDS011;59616;52.170;5.386;2023-07-13T03:31:08;11.23;;;2.80;;
70800;SDS011;59616;52.170;5.386;2023-07-13T03:33:36;12.48;;;2.20;;
70800;SDS011;59616;52.170;5.386;2023-07-13T03:36:05;16.48;;;2.95;;
70800;SDS011;59616;52.170;5.386;2023-07-13T03:38:33;7.07;;;2.13;;
70800;SDS011;59616;52.170;5.386;2023-07-13T03:41:02;12.18;;;2.67;;
70800;SDS011;59616;52.170;5.386;2023-07-13T03:43:29;11.18;;;2.15;;
70800;SDS011;59616;52.170;5.386;2023-07-13T03:45:57;8.95;;;2.47;;
70800;SDS011;59616;52.170;5.386;2023-07-13T03:48:24;8.38;;;2.35;;
70800;SDS011;59616;52.170;5.386;2023-07-13T03:50:51;11.20;;;2.42;;
70800;SDS011;59616;52.170;5.386;2023-07-13T03:53:19;9.43;;;2.60;;
70800;SDS011;59616;52.170;5.386;2023-07-13T03:55:46;16.42;;;3.25;;
70800;SDS011;59616;52.170;5.386;2023-07-13T03:58:27;12.20;;;2.63;;
70800;SDS011;59616;52.170;5.386;2023-07-13T04:00:59;12.77;;;2.55;;
70800;SDS011;59616;52.170;5.386;2023-07-13T04:03:27;12.02;;;2.72;;
70800;SDS011;59616;52.170;5.386;2023-07-13T04:05:55;11.23;;;2.53;;
70800;SDS011;59616;52.170;5.386;2023-07-13T04:08:27;12.18;;;2.40;;
70800;SDS011;59616;52.170;5.386;2023-07-13T04:10:55;9.60;;;2.88;;
70800;SDS011;59616;52.170;5.386;2023-07-13T04:13:22;10.15;;;2.90;;
70800;SDS011;59616;52.170;5.386;2023-07-13T04:15:50;9.98;;;2.28;;
70800;SDS011;59616;52.170;5.386;2023-07-13T04:18:18;12.80;;;2.78;;
70800;SDS011;59616;52.170;5.386;2023-07-13T04:20:46;9.95;;;2.50;;
70800;SDS011;59616;52.170;5.386;2023-07-13T04:23:13;13.65;;;2.75;;
70800;SDS011;59616;52.170;5.386;2023-07-13T04:25:44;11.68;;;2.70;;
70800;SDS011;59616;52.170;5.386;2023-07-13T04:28:12;12.65;;;2.90;;
70800;SDS011;59616;52.170;5.386;2023-07-13T04:30:39;13.23;;;3.03;;
70800;SDS011;59616;52.170;5.386;2023-07-13T04:33:06;13.32;;;3.08;;
70800;SDS011;59616;52.170;5.386;2023-07-13T04:35:35;15.23;;;3.38;;
70800;SDS011;59616;52.170;5.386;2023-07-13T04:38:03;11.98;;;3.22;;
70800;SDS011;59616;52.170;5.386;2023-07-13T04:40:30;11.75;;;2.83;;
70800;SDS011;59616;52.170;5.386;2023-07-13T04:42:58;16.65;;;3.22;;
70800;SDS011;59616;52.170;5.386;2023-07-13T04:45:25;18.17;;;3.53;;
70800;SDS011;59616;52.170;5.386;2023-07-13T04:47:52;12.57;;;2.85;;
70800;SDS011;59616;52.170;5.386;2023-07-13T04:50:21;12.52;;;2.92;;
70800;SDS011;59616;52.170;5.386;2023-07-13T04:52:50;14.82;;;3.42;;
70800;SDS011;59616;52.170;5.386;2023-07-13T04:55:18;17.67;;;3.83;;
70800;SDS011;59616;52.170;5.386;2023-07-13T04:57:46;13.27;;;3.30;;
70800;SDS011;59616;52.170;5.386;2023-07-13T05:00:14;16.92;;;3.20;;
70800;SDS011;59616;52.170;5.386;2023-07-13T05:02:44;15.00;;;3.00;;
70800;SDS011;59616;52.170;5.386;2023-07-13T05:05:12;14.50;;;3.25;;
70800;SDS011;59616;52.170;5.386;2023-07-13T05:07:40;19.38;;;3.60;;
70800;SDS011;59616;52.170;5.386;2023-07-13T05:10:07;14.32;;;3.22;;
70800;SDS011;59616;52.170;5.386;2023-07-13T05:12:35;19.15;;;3.78;;
70800;SDS011;59616;52.170;5.386;2023-07-13T05:15:03;15.82;;;3.70;;
70800;SDS011;59616;52.170;5.386;2023-07-13T05:17:30;14.35;;;3.50;;
70800;SDS011;59616;52.170;5.386;2023-07-13T05:19:58;14.43;;;3.60;;
70800;SDS011;59616;52.170;5.386;2023-07-13T05:22:25;14.05;;;3.45;;
70800;SDS011;59616;52.170;5.386;2023-07-13T05:24:52;15.20;;;4.28;;
70800;SDS011;59616;52.170;5.386;2023-07-13T05:27:20;14.13;;;3.35;;
70800;SDS011;59616;52.170;5.386;2023-07-13T05:29:47;15.23;;;3.65;;
70800;SDS011;59616;52.170;5.386;2023-07-13T05:32:14;18.15;;;4.20;;
70800;SDS011;59616;52.170;5.386;2023-07-13T05:34:42;14.65;;;4.00;;
70800;SDS011;59616;52.170;5.386;2023-07-13T05:37:09;20.40;;;4.68;;
70800;SDS011;59616;52.170;5.386;2023-07-13T05:39:36;22.42;;;5.13;;
70800;SDS011;59616;52.170;5.386;2023-07-13T05:42:04;15.82;;;4.80;;
70800;SDS011;59616;52.170;5.386;2023-07-13T05:44:31;18.40;;;5.20;;
70800;SDS011;59616;52.170;5.386;2023-07-13T05:46:58;21.60;;;5.20;;
70800;SDS011;59616;52.170;5.386;2023-07-13T05:49:26;21.77;;;4.75;;
70800;SDS011;59616;52.170;5.386;2023-07-13T05:51:53;20.42;;;5.93;;
70800;SDS011;59616;52.170;5.386;2023-07-13T05:54:20;18.00;;;5.00;;
70800;SDS011;59616;52.170;5.386;2023-07-13T05:56:48;19.17;;;5.43;;
70800;SDS011;59616;52.170;5.386;2023-07-13T05:59:15;17.35;;;5.00;;
70800;SDS011;59616;52.170;5.386;2023-07-13T06:01:42;16.33;;;4.97;;
70800;SDS011;59616;52.170;5.386;2023-07-13T06:04:10;20.50;;;5.90;;
70800;SDS011;59616;52.170;5.386;2023-07-13T06:06:37;13.93;;;4.65;;
70800;SDS011;59616;52.170;5.386;2023-07-13T06:09:04;14.68;;;5.10;;
70800;SDS011;59616;52.170;5.386;2023-07-13T06:11:32;20.50;;;6.45;;
70800;SDS011;59616;52.170;5.386;2023-07-13T06:13:59;20.90;;;6.03;;
70800;SDS011;59616;52.170;5.386;2023-07-13T06:16:26;17.55;;;5.82;;
70800;SDS011;59616;52.170;5.386;2023-07-13T06:18:54;17.90;;;5.25;;
70800;SDS011;59616;52.170;5.386;2023-07-13T06:21:22;17.98;;;5.78;;
70800;SDS011;59616;52.170;5.386;2023-07-13T06:23:50;19.25;;;6.43;;
70800;SDS011;59616;52.170;5.386;2023-07-13T06:26:18;18.83;;;5.78;;
70800;SDS011;59616;52.170;5.386;2023-07-13T06:28:46;20.30;;;5.40;;
70800;SDS011;59616;52.170;5.386;2023-07-13T06:31:14;17.48;;;5.80;;
70800;SDS011;59616;52.170;5.386;2023-07-13T06:33:42;20.92;;;6.03;;
70800;SDS011;59616;52.170;5.386;2023-07-13T06:36:10;17.42;;;6.25;;
70800;SDS011;59616;52.170;5.386;2023-07-13T06:38:37;20.83;;;6.13;;
70800;SDS011;59616;52.170;5.386;2023-07-13T06:41:06;20.63;;;6.15;;
70800;SDS011;59616;52.170;5.386;2023-07-13T06:43:33;17.08;;;6.03;;
70800;SDS011;59616;52.170;5.386;2023-07-13T06:46:01;19.42;;;5.85;;
70800;SDS011;59616;52.170;5.386;2023-07-13T06:48:28;18.67;;;6.40;;
70800;SDS011;59616;52.170;5.386;2023-07-13T06:50:55;18.27;;;5.90;;
70800;SDS011;59616;52.170;5.386;2023-07-13T06:53:23;20.80;;;5.93;;
70800;SDS011;59616;52.170;5.386;2023-07-13T06:55:50;20.52;;;6.40;;
70800;SDS011;59616;52.170;5.386;2023-07-13T06:58:18;18.58;;;6.90;;
70800;SDS011;59616;52.170;5.386;2023-07-13T07:00:46;15.18;;;5.78;;
70800;SDS011;59616;52.170;5.386;2023-07-13T07:03:13;18.88;;;6.35;;
70800;SDS011;59616;52.170;5.386;2023-07-13T07:05:41;21.00;;;6.40;;
70800;SDS011;59616;52.170;5.386;2023-07-13T07:08:08;19.48;;;6.63;;
70800;SDS011;59616;52.170;5.386;2023-07-13T07:10:36;17.73;;;6.05;;
70800;SDS011;59616;52.170;5.386;2023-07-13T07:13:03;19.90;;;6.90;;
70800;SDS011;59616;52.170;5.386;2023-07-13T07:15:31;18.35;;;6.57;;
70800;SDS011;59616;52.170;5.386;2023-07-13T07:17:58;18.90;;;6.80;;
70800;SDS011;59616;52.170;5.386;2023-07-13T07:20:26;21.73;;;7.45;;
70800;SDS011;59616;52.170;5.386;2023-07-13T07:22:53;19.48;;;7.75;;
70800;SDS011;59616;52.170;5.386;2023-07-13T07:25:21;22.85;;;7.00;;
70800;SDS011;59616;52.170;5.386;2023-07-13T07:27:48;18.90;;;6.95;;
70800;SDS011;59616;52.170;5.386;2023-07-13T07:30:18;17.88;;;7.00;;
70800;SDS011;59616;52.170;5.386;2023-07-13T07:32:49;23.73;;;7.63;;
70800;SDS011;59616;52.170;5.386;2023-07-13T07:35:19;18.45;;;6.90;;
70800;SDS011;59616;52.170;5.386;2023-07-13T07:37:46;20.38;;;6.97;;
70800;SDS011;59616;52.170;5.386;2023-07-13T07:40:16;16.30;;;6.40;;
70800;SDS011;59616;52.170;5.386;2023-07-13T07:42:47;21.13;;;7.30;;
70800;SDS011;59616;52.170;5.386;2023-07-13T07:45:14;17.83;;;7.68;;
70800;SDS011;59616;52.170;5.386;2023-07-13T07:47:42;21.58;;;8.27;;
70800;SDS011;59616;52.170;5.386;2023-07-13T07:50:09;15.48;;;7.47;;
70800;SDS011;59616;52.170;5.386;2023-07-13T07:52:37;17.60;;;7.57;;
70800;SDS011;59616;52.170;5.386;2023-07-13T07:55:05;22.55;;;8.20;;
70800;SDS011;59616;52.170;5.386;2023-07-13T07:57:36;26.70;;;8.02;;
70800;SDS011;59616;52.170;5.386;2023-07-13T08:00:07;22.38;;;7.78;;
70800;SDS011;59616;52.170;5.386;2023-07-13T08:02:54;20.75;;;7.70;;
70800;SDS011;59616;52.170;5.386;2023-07-13T08:05:41;21.95;;;8.30;;
70800;SDS011;59616;52.170;5.386;2023-07-13T08:08:21;20.75;;;7.85;;
70800;SDS011;59616;52.170;5.386;2023-07-13T08:10:48;23.52;;;8.23;;
70800;SDS011;59616;52.170;5.386;2023-07-13T08:13:16;22.15;;;7.90;;
70800;SDS011;59616;52.170;5.386;2023-07-13T08:15:44;17.95;;;7.20;;
70800;SDS011;59616;52.170;5.386;2023-07-13T08:18:11;16.10;;;6.13;;
70800;SDS011;59616;52.170;5.386;2023-07-13T08:20:39;17.67;;;5.72;;
70800;SDS011;59616;52.170;5.386;2023-07-13T08:23:06;17.90;;;5.35;;
70800;SDS011;59616;52.170;5.386;2023-07-13T08:25:34;15.48;;;6.15;;
70800;SDS011;59616;52.170;5.386;2023-07-13T08:28:02;15.35;;;5.65;;
70800;SDS011;59616;52.170;5.386;2023-07-13T08:30:30;15.00;;;5.22;;
70800;SDS011;59616;52.170;5.386;2023-07-13T08:32:57;20.10;;;5.50;;
70800;SDS011;59616;52.170;5.386;2023-07-13T08:35:24;14.85;;;5.00;;
70800;SDS011;59616;52.170;5.386;2023-07-13T08:37:52;16.08;;;5.00;;
70800;SDS011;59616;52.170;5.386;2023-07-13T08:40:19;10.60;;;4.35;;
70800;SDS011;59616;52.170;5.386;2023-07-13T08:42:53;17.60;;;4.85;;
70800;SDS011;59616;52.170;5.386;2023-07-13T08:45:24;14.25;;;4.70;;
70800;SDS011;59616;52.170;5.386;2023-07-13T08:47:53;10.50;;;3.85;;
70800;SDS011;59616;52.170;5.386;2023-07-13T08:50:25;8.23;;;3.40;;
70800;SDS011;59616;52.170;5.386;2023-07-13T08:52:55;9.93;;;3.10;;
70800;SDS011;59616;52.170;5.386;2023-07-13T08:55:27;8.30;;;2.40;;
70800;SDS011;59616;52.170;5.386;2023-07-13T08:58:01;6.25;;;2.10;;
70800;SDS011;59616;52.170;5.386;2023-07-13T09:00:34;7.32;;;2.60;;
70800;SDS011;59616;52.170;5.386;2023-07-13T09:03:04;7.63;;;2.10;;
70800;SDS011;59616;52.170;5.386;2023-07-13T09:05:33;8.43;;;2.38;;
70800;SDS011;59616;52.170;5.386;2023-07-13T09:10:52;4.97;;;2.00;;
70800;SDS011;59616;52.170;5.386;2023-07-13T09:14:23;7.22;;;2.40;;
70800;SDS011;59616;52.170;5.386;2023-07-13T09:16:22;8.25;;;2.42;;
70800;SDS011;59616;52.170;5.386;2023-07-13T09:18:51;7.28;;;2.22;;
70800;SDS011;59616;52.170;5.386;2023-07-13T09:21:28;8.20;;;2.30;;
70800;SDS011;59616;52.170;5.386;2023-07-13T09:23:58;8.00;;;2.75;;
70800;SDS011;59616;52.170;5.386;2023-07-13T09:26:27;7.07;;;2.63;;
70800;SDS011;59616;52.170;5.386;2023-07-13T09:28:57;9.55;;;2.80;;
70800;SDS011;59616;52.170;5.386;2023-07-13T09:31:28;7.72;;;2.90;;
70800;SDS011;59616;52.170;5.386;2023-07-13T09:33:57;13.68;;;2.85;;
70800;SDS011;59616;52.170;5.386;2023-07-13T09:36:26;7.88;;;2.67;;
70800;SDS011;59616;52.170;5.386;2023-07-13T09:44:12;10.90;;;3.40;;
70800;SDS011;59616;52.170;5.386;2023-07-13T09:46:53;10.10;;;2.70;;
70800;SDS011;59616;52.170;5.386;2023-07-13T09:49:25;7.82;;;2.60;;
70800;SDS011;59616;52.170;5.386;2023-07-13T09:51:57;13.45;;;3.47;;
70800;SDS011;59616;52.170;5.386;2023-07-13T09:54:26;10.70;;;3.55;;
70800;SDS011;59616;52.170;5.386;2023-07-13T09:56:57;10.13;;;3.03;;
70800;SDS011;59616;52.170;5.386;2023-07-13T09:59:32;7.53;;;2.85;;
70800;SDS011;59616;52.170;5.386;2023-07-13T10:01:59;9.65;;;2.60;;
70800;SDS011;59616;52.170;5.386;2023-07-13T10:04:31;8.15;;;2.20;;
70800;SDS011;59616;52.170;5.386;2023-07-13T10:07:05;9.98;;;2.45;;
70800;SDS011;59616;52.170;5.386;2023-07-13T10:09:53;7.43;;;2.40;;
70800;SDS011;59616;52.170;5.386;2023-07-13T10:12:21;9.48;;;2.60;;
70800;SDS011;59616;52.170;5.386;2023-07-13T10:17:33;7.47;;;2.63;;
70800;SDS011;59616;52.170;5.386;2023-07-13T10:20:02;7.47;;;2.60;;
70800;SDS011;59616;52.170;5.386;2023-07-13T10:25:19;8.68;;;2.80;;
70800;SDS011;59616;52.170;5.386;2023-07-13T10:27:47;9.20;;;2.80;;
70800;SDS011;59616;52.170;5.386;2023-07-13T10:30:23;9.25;;;2.72;;
70800;SDS011;59616;52.170;5.386;2023-07-13T10:32:51;8.65;;;2.72;;
70800;SDS011;59616;52.170;5.386;2023-07-13T10:35:20;8.32;;;3.20;;
70800;SDS011;59616;52.170;5.386;2023-07-13T10:40:41;7.63;;;3.17;;
70800;SDS011;59616;52.170;5.386;2023-07-13T10:43:13;9.48;;;3.22;;
70800;SDS011;59616;52.170;5.386;2023-07-13T10:45:41;9.45;;;3.33;;
70800;SDS011;59616;52.170;5.386;2023-07-13T10:48:12;12.23;;;3.28;;
70800;SDS011;59616;52.170;5.386;2023-07-13T10:50:43;11.40;;;3.28;;
70800;SDS011;59616;52.170;5.386;2023-07-13T10:58:20;8.48;;;3.13;;
70800;SDS011;59616;52.170;5.386;2023-07-13T11:00:49;8.63;;;2.75;;
70800;SDS011;59616;52.170;5.386;2023-07-13T11:03:17;8.80;;;2.83;;
70800;SDS011;59616;52.170;5.386;2023-07-13T11:05:47;8.13;;;2.70;;
70800;SDS011;59616;52.170;5.386;2023-07-13T11:08:32;6.97;;;2.60;;
70800;SDS011;59616;52.170;5.386;2023-07-13T11:10:59;8.95;;;2.60;;
70800;SDS011;59616;52.170;5.386;2023-07-13T11:13:55;8.73;;;2.50;;
70800;SDS011;59616;52.170;5.386;2023-07-13T11:19:38;7.82;;;2.47;;
70800;SDS011;59616;52.170;5.386;2023-07-13T11:24:49;13.63;;;3.30;;
70800;SDS011;59616;52.170;5.386;2023-07-13T11:40:56;8.20;;;2.60;;
70800;SDS011;59616;52.170;5.386;2023-07-13T11:43:29;8.63;;;2.70;;
70800;SDS011;59616;52.170;5.386;2023-07-13T11:45:57;9.60;;;2.83;;
70800;SDS011;59616;52.170;5.386;2023-07-13T11:48:26;8.80;;;2.42;;
70800;SDS011;59616;52.170;5.386;2023-07-13T11:50:56;8.60;;;2.58;;
70800;SDS011;59616;52.170;5.386;2023-07-13T11:53:36;8.38;;;2.72;;
70800;SDS011;59616;52.170;5.386;2023-07-13T11:56:05;8.25;;;2.63;;
70800;SDS011;59616;52.170;5.386;2023-07-13T11:58:32;9.77;;;2.70;;
70800;SDS011;59616;52.170;5.386;2023-07-13T12:01:01;9.93;;;2.55;;
70800;SDS011;59616;52.170;5.386;2023-07-13T12:03:31;10.27;;;3.35;;
70800;SDS011;59616;52.170;5.386;2023-07-13T12:06:02;9.55;;;2.72;;
70800;SDS011;59616;52.170;5.386;2023-07-13T12:08:37;9.98;;;3.20;;
70800;SDS011;59616;52.170;5.386;2023-07-13T12:11:15;9.35;;;3.10;;
70800;SDS011;59616;52.170;5.386;2023-07-13T12:13:43;12.10;;;3.20;;
70800;SDS011;59616;52.170;5.386;2023-07-13T12:16:15;8.98;;;2.97;;
70800;SDS011;59616;52.170;5.386;2023-07-13T12:18:43;11.57;;;3.15;;
70800;SDS011;59616;52.170;5.386;2023-07-13T12:21:16;9.40;;;3.15;;
70800;SDS011;59616;52.170;5.386;2023-07-13T12:23:47;8.05;;;2.67;;
70800;SDS011;59616;52.170;5.386;2023-07-13T12:26:16;9.88;;;3.60;;
70800;SDS011;59616;52.170;5.386;2023-07-13T12:28:49;7.35;;;2.70;;
70800;SDS011;59616;52.170;5.386;2023-07-13T12:33:46;8.68;;;2.92;;
70800;SDS011;59616;52.170;5.386;2023-07-13T12:36:14;11.93;;;2.92;;
70800;SDS011;59616;52.170;5.386;2023-07-13T12:38:44;7.50;;;2.70;;
70800;SDS011;59616;52.170;5.386;2023-07-13T12:41:12;8.73;;;2.78;;
70800;SDS011;59616;52.170;5.386;2023-07-13T12:43:42;7.28;;;2.60;;
70800;SDS011;59616;52.170;5.386;2023-07-13T12:46:21;8.98;;;2.60;;
70800;SDS011;59616;52.170;5.386;2023-07-13T12:48:51;8.90;;;2.45;;
70800;SDS011;59616;52.170;5.386;2023-07-13T12:51:38;8.95;;;2.35;;
70800;SDS011;59616;52.170;5.386;2023-07-13T12:54:10;10.20;;;2.50;;
70800;SDS011;59616;52.170;5.386;2023-07-13T12:56:40;8.57;;;2.53;;
70800;SDS011;59616;52.170;5.386;2023-07-13T12:59:09;8.48;;;2.28;;
70800;SDS011;59616;52.170;5.386;2023-07-13T13:01:43;7.57;;;2.47;;
70800;SDS011;59616;52.170;5.386;2023-07-13T13:04:10;9.10;;;2.45;;
70800;SDS011;59616;52.170;5.386;2023-07-13T13:06:39;8.93;;;2.67;;
70800;SDS011;59616;52.170;5.386;2023-07-13T13:09:12;8.00;;;2.10;;
70800;SDS011;59616;52.170;5.386;2023-07-13T13:11:40;9.07;;;2.40;;
70800;SDS011;59616;52.170;5.386;2023-07-13T13:14:08;9.95;;;2.70;;
70800;SDS011;59616;52.170;5.386;2023-07-13T13:16:38;6.68;;;2.13;;
70800;SDS011;59616;52.170;5.386;2023-07-13T13:19:18;7.00;;;2.35;;
70800;SDS011;59616;52.170;5.386;2023-07-13T13:21:48;6.60;;;2.30;;
70800;SDS011;59616;52.170;5.386;2023-07-13T13:24:20;9.13;;;2.28;;
70800;SDS011;59616;52.170;5.386;2023-07-13T13:26:47;8.82;;;2.42;;
70800;SDS011;59616;52.170;5.386;2023-07-13T13:29:22;6.35;;;1.98;;
70800;SDS011;59616;52.170;5.386;2023-07-13T13:31:51;9.00;;;2.47;;
70800;SDS011;59616;52.170;5.386;2023-07-13T13:34:19;8.15;;;2.50;;
70800;SDS011;59616;52.170;5.386;2023-07-13T13:36:49;8.38;;;2.20;;
70800;SDS011;59616;52.170;5.386;2023-07-13T13:39:25;5.45;;;2.13;;
70800;SDS011;59616;52.170;5.386;2023-07-13T13:41:58;7.65;;;2.28;;
70800;SDS011;59616;52.170;5.386;2023-07-13T13:44:26;8.93;;;2.33;;
70800;SDS011;59616;52.170;5.386;2023-07-13T13:46:54;9.57;;;2.33;;
70800;SDS011;59616;52.170;5.386;2023-07-13T13:49:23;8.82;;;2.72;;
70800;SDS011;59616;52.170;5.386;2023-07-13T13:51:51;8.55;;;2.25;;
70800;SDS011;59616;52.170;5.386;2023-07-13T13:54:19;8.13;;;2.40;;
70800;SDS011;59616;52.170;5.386;2023-07-13T13:56:47;8.32;;;2.58;;
70800;SDS011;59616;52.170;5.386;2023-07-13T13:59:15;8.85;;;2.22;;
70800;SDS011;59616;52.170;5.386;2023-07-13T14:01:42;10.93;;;2.72;;
70800;SDS011;59616;52.170;5.386;2023-07-13T14:04:21;7.63;;;2.25;;
70800;SDS011;59616;52.170;5.386;2023-07-13T14:06:49;6.75;;;2.10;;
70800;SDS011;59616;52.170;5.386;2023-07-13T14:09:17;11.18;;;2.70;;
70800;SDS011;59616;52.170;5.386;2023-07-13T14:11:45;6.72;;;2.15;;
70800;SDS011;59616;52.170;5.386;2023-07-13T14:14:20;8.15;;;2.22;;
70800;SDS011;59616;52.170;5.386;2023-07-13T14:16:47;7.70;;;2.55;;
70800;SDS011;59616;52.170;5.386;2023-07-13T14:19:20;7.13;;;2.30;;
70800;SDS011;59616;52.170;5.386;2023-07-13T14:21:47;8.88;;;2.55;;
70800;SDS011;59616;52.170;5.386;2023-07-13T14:24:16;6.57;;;2.28;;
70800;SDS011;59616;52.170;5.386;2023-07-13T14:26:45;9.18;;;2.15;;
70800;SDS011;59616;52.170;5.386;2023-07-13T14:29:14;5.28;;;1.92;;
70800;SDS011;59616;52.170;5.386;2023-07-13T14:31:44;9.73;;;2.53;;
70800;SDS011;59616;52.170;5.386;2023-07-13T14:34:11;5.72;;;1.90;;
70800;SDS011;59616;52.170;5.386;2023-07-13T14:36:47;7.93;;;2.35;;
70800;SDS011;59616;52.170;5.386;2023-07-13T14:39:23;8.70;;;2.60;;
70800;SDS011;59616;52.170;5.386;2023-07-13T14:41:51;8.98;;;2.30;;
70800;SDS011;59616;52.170;5.386;2023-07-13T14:44:21;9.18;;;2.20;;
70800;SDS011;59616;52.170;5.386;2023-07-13T14:46:49;7.25;;;1.70;;
70800;SDS011;59616;52.170;5.386;2023-07-13T14:49:51;7.28;;;2.20;;
70800;SDS011;59616;52.170;5.386;2023-07-13T14:52:20;9.88;;;2.40;;
70800;SDS011;59616;52.170;5.386;2023-07-13T14:54:52;6.45;;;2.20;;
70800;SDS011;59616;52.170;5.386;2023-07-13T14:57:20;6.40;;;2.17;;
70800;SDS011;59616;52.170;5.386;2023-07-13T14:59:47;8.77;;;2.13;;
70800;SDS011;59616;52.170;5.386;2023-07-13T15:04:47;4.88;;;2.00;;
70800;SDS011;59616;52.170;5.386;2023-07-13T15:07:15;8.65;;;2.20;;
70800;SDS011;59616;52.170;5.386;2023-07-13T15:09:44;8.07;;;2.05;;
70800;SDS011;59616;52.170;5.386;2023-07-13T15:12:11;10.10;;;2.20;;
70800;SDS011;59616;52.170;5.386;2023-07-13T15:14:39;7.30;;;2.08;;
70800;SDS011;59616;52.170;5.386;2023-07-13T15:17:12;9.32;;;2.10;;
70800;SDS011;59616;52.170;5.386;2023-07-13T15:19:52;7.65;;;2.00;;
70800;SDS011;59616;52.170;5.386;2023-07-13T15:22:19;6.47;;;1.98;;
70800;SDS011;59616;52.170;5.386;2023-07-13T15:24:47;10.25;;;2.20;;
70800;SDS011;59616;52.170;5.386;2023-07-13T15:27:14;8.68;;;2.20;;
70800;SDS011;59616;52.170;5.386;2023-07-13T15:29:41;6.25;;;2.03;;
70800;SDS011;59616;52.170;5.386;2023-07-13T15:32:13;7.35;;;2.20;;
70800;SDS011;59616;52.170;5.386;2023-07-13T15:34:40;7.60;;;1.77;;
70800;SDS011;59616;52.170;5.386;2023-07-13T15:37:11;6.65;;;1.95;;
70800;SDS011;59616;52.170;5.386;2023-07-13T15:39:39;6.88;;;1.60;;
70800;SDS011;59616;52.170;5.386;2023-07-13T15:42:09;6.72;;;1.83;;